sensor_id;sensor_type;location;lat;lon;timestamp;P1;durP1;ratioP1;P2;durP2;ratioP2
65799;SDS011;52544;48.116;11.660;2024-01-11T00:00:28;33.17;;;11.15;;
65799;SDS011;52544;48.116;11.660;2024-01-11T00:02:54;37.28;;;10.48;;
65799;SDS011;52544;48.116;11.660;2024-01-11T00:05:19;38.70;;;11.88;;
65799;SDS011;52544;48.116;11.660;2024-01-11T00:07:45;35.47;;;12.02;;
65799;SDS011;52544;48.116;11.660;2024-01-11T00:10:10;38.53;;;11.90;;
65799;SDS011;52544;48.116;11.660;2024-01-11T00:12:35;29.70;;;10.43;;
65799;SDS011;52544;48.116;11.660;2024-01-11T00:15:01;30.80;;;10.38;;
65799;SDS011;52544;48.116;11.660;2024-01-11T00:17:26;35.75;;;13.18;;
65799;SDS011;52544;48.116;11.660;2024-01-11T00:19:52;33.47;;;12.55;;
65799;SDS011;52544;48.116;11.660;2024-01-11T00:22:17;38.88;;;12.70;;
65799;SDS011;52544;48.116;11.660;2024-01-11T00:24:43;37.58;;;11.10;;
65799;SDS011;52544;48.116;11.660;2024-01-11T00:27:08;25.83;;;9.57;;
65799;SDS011;52544;48.116;11.660;2024-01-11T00:29:35;34.10;;;10.75;;
65799;SDS011;52544;48.116;11.660;2024-01-11T00:32:01;30.77;;;10.18;;
65799;SDS011;52544;48.116;11.660;2024-01-11T00:34:26;38.63;;;11.43;;
65799;SDS011;52544;48.116;11.660;2024-01-11T00:36:52;38.15;;;11.15;;
65799;SDS011;52544;48.116;11.660;2024-01-11T00:39:17;34.38;;;12.52;;
65799;SDS011;52544;48.116;11.660;2024-01-11T00:41:42;48.28;;;12.63;;
65799;SDS011;52544;48.116;11.660;2024-01-11T00:44:08;47.10;;;12.60;;
65799;SDS011;52544;48.116;11.660;2024-01-11T00:46:34;46.38;;;13.80;;
65799;SDS011;52544;48.116;11.660;2024-01-11T00:49:00;47.53;;;13.27;;
65799;SDS011;52544;48.116;11.660;2024-01-11T00:51:25;43.78;;;14.40;;
65799;SDS011;52544;48.116;11.660;2024-01-11T00:53:51;54.40;;;13.63;;
65799;SDS011;52544;48.116;11.660;2024-01-11T00:56:19;45.20;;;13.98;;
65799;SDS011;52544;48.116;11.660;2024-01-11T00:58:45;40.10;;;13.40;;
65799;SDS011;52544;48.116;11.660;2024-01-11T01:01:11;41.00;;;13.25;;
65799;SDS011;52544;48.116;11.660;2024-01-11T01:03:37;39.22;;;13.27;;
65799;SDS011;52544;48.116;11.660;2024-01-11T01:06:03;39.53;;;13.90;;
65799;SDS011;52544;48.116;11.660;2024-01-11T01:08:30;40.15;;;13.35;;
65799;SDS011;52544;48.116;11.660;2024-01-11T01:10:55;39.50;;;12.95;;
65799;SDS011;52544;48.116;11.660;2024-01-11T01:13:20;34.90;;;12.85;;
65799;SDS011;52544;48.116;11.660;2024-01-11T01:15:46;33.63;;;11.68;;
65799;SDS011;52544;48.116;11.660;2024-01-11T01:18:11;48.50;;;14.35;;
65799;SDS011;52544;48.116;11.660;2024-01-11T01:20:37;37.80;;;12.02;;
65799;SDS011;52544;48.116;11.660;2024-01-11T01:23:02;35.90;;;11.80;;
65799;SDS011;52544;48.116;11.660;2024-01-11T01:25:28;35.25;;;11.90;;
65799;SDS011;52544;48.116;11.660;2024-01-11T01:27:53;45.67;;;12.98;;
65799;SDS011;52544;48.116;11.660;2024-01-11T01:30:19;38.22;;;13.07;;
65799;SDS011;52544;48.116;11.660;2024-01-11T01:32:45;37.95;;;13.68;;
65799;SDS011;52544;48.116;11.660;2024-01-11T01:35:10;42.60;;;13.65;;
65799;SDS011;52544;48.116;11.660;2024-01-11T01:37:36;39.00;;;11.63;;
65799;SDS011;52544;48.116;11.660;2024-01-11T01:40:01;37.80;;;13.07;;
65799;SDS011;52544;48.116;11.660;2024-01-11T01:42:27;35.28;;;12.30;;
65799;SDS011;52544;48.116;11.660;2024-01-11T01:44:52;38.35;;;12.45;;
65799;SDS011;52544;48.116;11.660;2024-01-11T01:47:18;40.45;;;12.63;;
65799;SDS011;52544;48.116;11.660;2024-01-11T01:49:44;41.53;;;12.20;;
65799;SDS011;52544;48.116;11.660;2024-01-11T01:52:10;39.92;;;12.15;;
65799;SDS011;52544;48.116;11.660;2024-01-11T01:54:39;38.65;;;11.73;;
65799;SDS011;52544;48.116;11.660;2024-01-11T01:57:04;35.47;;;11.85;;
65799;SDS011;52544;48.116;11.660;2024-01-11T01:59:32;30.73;;;10.77;;
65799;SDS011;52544;48.116;11.660;2024-01-11T02:01:58;26.83;;;9.77;;
65799;SDS011;52544;48.116;11.660;2024-01-11T02:04:24;44.88;;;12.63;;
65799;SDS011;52544;48.116;11.660;2024-01-11T02:06:50;35.60;;;11.35;;
65799;SDS011;52544;48.116;11.660;2024-01-11T02:09:18;35.65;;;12.18;;
65799;SDS011;52544;48.116;11.660;2024-01-11T02:11:44;32.38;;;11.80;;
65799;SDS011;52544;48.116;11.660;2024-01-11T02:14:10;41.17;;;13.90;;
65799;SDS011;52544;48.116;11.660;2024-01-11T02:16:36;37.55;;;12.32;;
65799;SDS011;52544;48.116;11.660;2024-01-11T02:19:02;32.28;;;11.63;;
65799;SDS011;52544;48.116;11.660;2024-01-11T02:21:29;42.25;;;10.73;;
65799;SDS011;52544;48.116;11.660;2024-01-11T02:24:05;42.58;;;12.93;;
65799;SDS011;52544;48.116;11.660;2024-01-11T02:26:32;33.22;;;11.20;;
65799;SDS011;52544;48.116;11.660;2024-01-11T02:28:58;40.17;;;12.77;;
65799;SDS011;52544;48.116;11.660;2024-01-11T02:31:24;34.90;;;11.73;;
65799;SDS011;52544;48.116;11.660;2024-01-11T02:33:53;33.65;;;12.00;;
65799;SDS011;52544;48.116;11.660;2024-01-11T02:36:21;36.75;;;11.02;;
65799;SDS011;52544;48.116;11.660;2024-01-11T02:38:47;39.42;;;10.25;;
65799;SDS011;52544;48.116;11.660;2024-01-11T02:41:14;36.53;;;11.43;;
65799;SDS011;52544;48.116;11.660;2024-01-11T02:43:46;35.75;;;12.18;;
65799;SDS011;52544;48.116;11.660;2024-01-11T02:46:12;32.00;;;10.20;;
65799;SDS011;52544;48.116;11.660;2024-01-11T02:48:37;37.28;;;12.48;;
65799;SDS011;52544;48.116;11.660;2024-01-11T02:51:02;37.40;;;10.52;;
65799;SDS011;52544;48.116;11.660;2024-01-11T02:53:28;29.42;;;11.38;;
65799;SDS011;52544;48.116;11.660;2024-01-11T02:55:59;51.22;;;10.07;;
65799;SDS011;52544;48.116;11.660;2024-01-11T02:58:24;38.03;;;11.05;;
65799;SDS011;52544;48.116;11.660;2024-01-11T03:00:50;33.10;;;10.55;;
65799;SDS011;52544;48.116;11.660;2024-01-11T03:03:15;33.42;;;10.25;;
65799;SDS011;52544;48.116;11.660;2024-01-11T03:05:41;35.72;;;11.60;;
65799;SDS011;52544;48.116;11.660;2024-01-11T03:08:06;32.13;;;9.65;;
65799;SDS011;52544;48.116;11.660;2024-01-11T03:10:32;32.28;;;10.65;;
65799;SDS011;52544;48.116;11.660;2024-01-11T03:12:57;26.77;;;9.55;;
65799;SDS011;52544;48.116;11.660;2024-01-11T03:15:23;31.65;;;10.02;;
65799;SDS011;52544;48.116;11.660;2024-01-11T03:17:48;34.78;;;10.73;;
65799;SDS011;52544;48.116;11.660;2024-01-11T03:20:14;36.95;;;10.85;;
65799;SDS011;52544;48.116;11.660;2024-01-11T03:22:44;29.88;;;9.93;;
65799;SDS011;52544;48.116;11.660;2024-01-11T03:25:10;27.15;;;11.07;;
65799;SDS011;52544;48.116;11.660;2024-01-11T03:27:36;28.70;;;9.77;;
65799;SDS011;52544;48.116;11.660;2024-01-11T03:30:01;36.78;;;10.80;;
65799;SDS011;52544;48.116;11.660;2024-01-11T03:32:27;29.92;;;10.85;;
65799;SDS011;52544;48.116;11.660;2024-01-11T03:34:52;31.60;;;11.02;;
65799;SDS011;52544;48.116;11.660;2024-01-11T03:37:17;37.65;;;11.25;;
65799;SDS011;52544;48.116;11.660;2024-01-11T03:39:43;36.30;;;11.77;;
65799;SDS011;52544;48.116;11.660;2024-01-11T03:42:08;47.97;;;12.02;;
65799;SDS011;52544;48.116;11.660;2024-01-11T03:44:35;34.08;;;11.57;;
65799;SDS011;52544;48.116;11.660;2024-01-11T03:47:01;42.00;;;10.75;;
65799;SDS011;52544;48.116;11.660;2024-01-11T03:49:27;33.60;;;11.60;;
65799;SDS011;52544;48.116;11.660;2024-01-11T03:51:52;44.05;;;12.00;;
65799;SDS011;52544;48.116;11.660;2024-01-11T03:54:17;39.95;;;11.30;;
65799;SDS011;52544;48.116;11.660;2024-01-11T03:56:43;27.48;;;10.48;;
65799;SDS011;52544;48.116;11.660;2024-01-11T03:59:08;44.13;;;11.55;;
65799;SDS011;52544;48.116;11.660;2024-01-11T04:01:39;35.67;;;10.13;;
65799;SDS011;52544;48.116;11.660;2024-01-11T04:04:08;25.58;;;10.18;;
65799;SDS011;52544;48.116;11.660;2024-01-11T04:06:34;29.30;;;10.20;;
65799;SDS011;52544;48.116;11.660;2024-01-11T04:08:59;31.02;;;9.88;;
65799;SDS011;52544;48.116;11.660;2024-01-11T04:11:28;36.97;;;11.73;;
65799;SDS011;52544;48.116;11.660;2024-01-11T04:13:54;36.83;;;11.88;;
65799;SDS011;52544;48.116;11.660;2024-01-11T04:16:19;41.50;;;11.55;;
65799;SDS011;52544;48.116;11.660;2024-01-11T04:18:46;41.58;;;11.45;;
65799;SDS011;52544;48.116;11.660;2024-01-11T04:21:21;32.72;;;10.60;;
65799;SDS011;52544;48.116;11.660;2024-01-11T04:23:53;37.40;;;12.63;;
65799;SDS011;52544;48.116;11.660;2024-01-11T04:26:19;33.00;;;10.48;;
65799;SDS011;52544;48.116;11.660;2024-01-11T04:28:47;31.38;;;10.45;;
65799;SDS011;52544;48.116;11.660;2024-01-11T04:31:14;37.13;;;9.70;;
65799;SDS011;52544;48.116;11.660;2024-01-11T04:33:41;37.13;;;11.88;;
65799;SDS011;52544;48.116;11.660;2024-01-11T04:36:07;34.45;;;11.80;;
65799;SDS011;52544;48.116;11.660;2024-01-11T04:38:35;39.17;;;12.10;;
65799;SDS011;52544;48.116;11.660;2024-01-11T04:41:02;36.30;;;11.77;;
65799;SDS011;52544;48.116;11.660;2024-01-11T04:43:32;33.75;;;11.75;;
65799;SDS011;52544;48.116;11.660;2024-01-11T04:45:57;34.15;;;10.48;;
65799;SDS011;52544;48.116;11.660;2024-01-11T04:48:23;31.83;;;11.30;;
65799;SDS011;52544;48.116;11.660;2024-01-11T04:50:48;35.03;;;11.82;;
65799;SDS011;52544;48.116;11.660;2024-01-11T04:53:14;28.50;;;10.70;;
65799;SDS011;52544;48.116;11.660;2024-01-11T04:55:39;38.95;;;10.52;;
65799;SDS011;52544;48.116;11.660;2024-01-11T04:58:04;33.00;;;11.27;;
65799;SDS011;52544;48.116;11.660;2024-01-11T05:00:30;30.88;;;11.00;;
65799;SDS011;52544;48.116;11.660;2024-01-11T05:02:55;28.92;;;10.20;;
65799;SDS011;52544;48.116;11.660;2024-01-11T05:05:20;30.38;;;10.65;;
65799;SDS011;52544;48.116;11.660;2024-01-11T05:07:46;34.70;;;11.23;;
65799;SDS011;52544;48.116;11.660;2024-01-11T05:10:11;33.28;;;10.68;;
65799;SDS011;52544;48.116;11.660;2024-01-11T05:12:37;32.28;;;11.35;;
65799;SDS011;52544;48.116;11.660;2024-01-11T05:15:03;34.53;;;11.00;;
65799;SDS011;52544;48.116;11.660;2024-01-11T05:17:29;28.48;;;9.50;;
65799;SDS011;52544;48.116;11.660;2024-01-11T05:19:55;25.92;;;9.05;;
65799;SDS011;52544;48.116;11.660;2024-01-11T05:22:20;26.00;;;9.15;;
65799;SDS011;52544;48.116;11.660;2024-01-11T05:24:46;26.88;;;9.05;;
65799;SDS011;52544;48.116;11.660;2024-01-11T05:27:12;28.92;;;9.50;;
65799;SDS011;52544;48.116;11.660;2024-01-11T05:29:37;25.67;;;9.18;;
65799;SDS011;52544;48.116;11.660;2024-01-11T05:32:03;29.38;;;9.77;;
65799;SDS011;52544;48.116;11.660;2024-01-11T05:34:28;42.83;;;16.77;;
65799;SDS011;52544;48.116;11.660;2024-01-11T05:36:54;31.08;;;10.43;;
65799;SDS011;52544;48.116;11.660;2024-01-11T05:39:19;41.85;;;13.50;;
65799;SDS011;52544;48.116;11.660;2024-01-11T05:41:45;25.90;;;10.02;;
65799;SDS011;52544;48.116;11.660;2024-01-11T05:44:10;28.98;;;10.57;;
65799;SDS011;52544;48.116;11.660;2024-01-11T05:46:36;28.42;;;10.07;;
65799;SDS011;52544;48.116;11.660;2024-01-11T05:49:01;26.35;;;9.43;;
65799;SDS011;52544;48.116;11.660;2024-01-11T05:51:26;23.83;;;8.95;;
65799;SDS011;52544;48.116;11.660;2024-01-11T05:53:52;24.08;;;7.45;;
65799;SDS011;52544;48.116;11.660;2024-01-11T05:56:18;27.23;;;8.63;;
65799;SDS011;52544;48.116;11.660;2024-01-11T05:58:45;28.63;;;10.65;;
65799;SDS011;52544;48.116;11.660;2024-01-11T06:01:10;31.67;;;10.85;;
65799;SDS011;52544;48.116;11.660;2024-01-11T06:03:36;17.98;;;8.23;;
65799;SDS011;52544;48.116;11.660;2024-01-11T06:06:03;31.50;;;10.18;;
65799;SDS011;52544;48.116;11.660;2024-01-11T06:08:29;22.25;;;8.35;;
65799;SDS011;52544;48.116;11.660;2024-01-11T06:10:55;27.65;;;9.20;;
65799;SDS011;52544;48.116;11.660;2024-01-11T06:13:21;24.67;;;9.77;;
65799;SDS011;52544;48.116;11.660;2024-01-11T06:15:47;22.92;;;8.02;;
65799;SDS011;52544;48.116;11.660;2024-01-11T06:18:12;21.05;;;8.23;;
65799;SDS011;52544;48.116;11.660;2024-01-11T06:20:38;28.27;;;9.90;;
65799;SDS011;52544;48.116;11.660;2024-01-11T06:23:03;27.80;;;9.23;;
65799;SDS011;52544;48.116;11.660;2024-01-11T06:25:29;24.50;;;8.60;;
65799;SDS011;52544;48.116;11.660;2024-01-11T06:27:54;26.52;;;9.30;;
65799;SDS011;52544;48.116;11.660;2024-01-11T06:30:20;36.15;;;8.82;;
65799;SDS011;52544;48.116;11.660;2024-01-11T06:32:45;26.02;;;9.65;;
65799;SDS011;52544;48.116;11.660;2024-01-11T06:35:11;25.98;;;8.05;;
65799;SDS011;52544;48.116;11.660;2024-01-11T06:37:36;29.10;;;8.95;;
65799;SDS011;52544;48.116;11.660;2024-01-11T06:40:02;30.08;;;8.70;;
65799;SDS011;52544;48.116;11.660;2024-01-11T06:42:28;23.17;;;9.32;;
65799;SDS011;52544;48.116;11.660;2024-01-11T06:44:55;26.67;;;8.77;;
65799;SDS011;52544;48.116;11.660;2024-01-11T06:47:20;22.33;;;8.70;;
65799;SDS011;52544;48.116;11.660;2024-01-11T06:49:45;24.05;;;8.63;;
65799;SDS011;52544;48.116;11.660;2024-01-11T06:52:11;28.17;;;9.82;;
65799;SDS011;52544;48.116;11.660;2024-01-11T06:54:36;34.00;;;9.20;;
65799;SDS011;52544;48.116;11.660;2024-01-11T06:57:02;34.58;;;8.43;;
65799;SDS011;52544;48.116;11.660;2024-01-11T06:59:27;26.02;;;10.20;;
65799;SDS011;52544;48.116;11.660;2024-01-11T07:01:53;30.55;;;7.90;;
65799;SDS011;52544;48.116;11.660;2024-01-11T07:04:18;29.25;;;8.38;;
65799;SDS011;52544;48.116;11.660;2024-01-11T07:06:44;32.72;;;9.20;;
65799;SDS011;52544;48.116;11.660;2024-01-11T07:09:09;23.98;;;8.55;;
65799;SDS011;52544;48.116;11.660;2024-01-11T07:11:36;27.10;;;10.18;;
65799;SDS011;52544;48.116;11.660;2024-01-11T07:14:01;23.70;;;8.05;;
65799;SDS011;52544;48.116;11.660;2024-01-11T07:16:29;43.88;;;10.18;;
65799;SDS011;52544;48.116;11.660;2024-01-11T07:18:55;24.13;;;8.90;;
65799;SDS011;52544;48.116;11.660;2024-01-11T07:21:23;22.70;;;9.60;;
65799;SDS011;52544;48.116;11.660;2024-01-11T07:23:55;18.13;;;7.72;;
65799;SDS011;52544;48.116;11.660;2024-01-11T07:26:21;21.80;;;8.68;;
65799;SDS011;52544;48.116;11.660;2024-01-11T07:28:48;37.10;;;9.48;;
65799;SDS011;52544;48.116;11.660;2024-01-11T07:31:14;27.73;;;9.10;;
65799;SDS011;52544;48.116;11.660;2024-01-11T07:33:39;25.27;;;8.63;;
65799;SDS011;52544;48.116;11.660;2024-01-11T07:36:05;26.05;;;8.65;;
65799;SDS011;52544;48.116;11.660;2024-01-11T07:38:31;31.90;;;8.77;;
65799;SDS011;52544;48.116;11.660;2024-01-11T07:40:57;31.98;;;9.13;;
65799;SDS011;52544;48.116;11.660;2024-01-11T07:43:22;25.15;;;8.65;;
65799;SDS011;52544;48.116;11.660;2024-01-11T07:45:48;27.67;;;10.65;;
65799;SDS011;52544;48.116;11.660;2024-01-11T07:48:13;27.02;;;9.48;;
65799;SDS011;52544;48.116;11.660;2024-01-11T07:50:39;27.67;;;9.70;;
65799;SDS011;52544;48.116;11.660;2024-01-11T07:53:04;31.15;;;10.65;;
65799;SDS011;52544;48.116;11.660;2024-01-11T07:55:30;25.38;;;9.25;;
65799;SDS011;52544;48.116;11.660;2024-01-11T07:57:56;25.00;;;9.27;;
65799;SDS011;52544;48.116;11.660;2024-01-11T08:00:22;26.75;;;9.27;;
65799;SDS011;52544;48.116;11.660;2024-01-11T08:02:47;25.63;;;9.48;;
65799;SDS011;52544;48.116;11.660;2024-01-11T08:05:12;26.52;;;9.60;;
65799;SDS011;52544;48.116;11.660;2024-01-11T08:07:38;32.28;;;9.93;;
65799;SDS011;52544;48.116;11.660;2024-01-11T08:10:03;27.70;;;9.80;;
65799;SDS011;52544;48.116;11.660;2024-01-11T08:12:29;29.48;;;10.68;;
65799;SDS011;52544;48.116;11.660;2024-01-11T08:14:55;26.80;;;9.27;;
65799;SDS011;52544;48.116;11.660;2024-01-11T08:17:21;29.17;;;9.65;;
65799;SDS011;52544;48.116;11.660;2024-01-11T08:19:46;34.72;;;10.65;;
65799;SDS011;52544;48.116;11.660;2024-01-11T08:22:12;29.13;;;11.07;;
65799;SDS011;52544;48.116;11.660;2024-01-11T08:24:37;27.08;;;9.85;;
65799;SDS011;52544;48.116;11.660;2024-01-11T08:27:03;28.52;;;11.00;;
65799;SDS011;52544;48.116;11.660;2024-01-11T08:29:29;31.67;;;11.73;;
65799;SDS011;52544;48.116;11.660;2024-01-11T08:31:55;30.95;;;11.32;;
65799;SDS011;52544;48.116;11.660;2024-01-11T08:34:21;27.42;;;10.77;;
65799;SDS011;52544;48.116;11.660;2024-01-11T08:36:46;30.00;;;10.57;;
65799;SDS011;52544;48.116;11.660;2024-01-11T08:39:12;30.13;;;10.98;;
65799;SDS011;52544;48.116;11.660;2024-01-11T08:41:39;34.33;;;13.10;;
65799;SDS011;52544;48.116;11.660;2024-01-11T08:44:04;38.95;;;12.35;;
65799;SDS011;52544;48.116;11.660;2024-01-11T08:46:32;50.47;;;13.90;;
65799;SDS011;52544;48.116;11.660;2024-01-11T08:48:59;42.47;;;12.90;;
65799;SDS011;52544;48.116;11.660;2024-01-11T08:51:30;44.60;;;13.40;;
65799;SDS011;52544;48.116;11.660;2024-01-11T08:53:57;36.45;;;12.05;;
65799;SDS011;52544;48.116;11.660;2024-01-11T08:56:22;36.15;;;12.57;;
65799;SDS011;52544;48.116;11.660;2024-01-11T08:58:48;32.08;;;11.57;;
65799;SDS011;52544;48.116;11.660;2024-01-11T09:01:13;34.42;;;11.52;;
65799;SDS011;52544;48.116;11.660;2024-01-11T09:03:39;36.38;;;10.73;;
65799;SDS011;52544;48.116;11.660;2024-01-11T09:06:05;28.65;;;11.55;;
65799;SDS011;52544;48.116;11.660;2024-01-11T09:08:31;35.47;;;12.70;;
65799;SDS011;52544;48.116;11.660;2024-01-11T09:10:56;35.40;;;13.18;;
65799;SDS011;52544;48.116;11.660;2024-01-11T09:13:25;34.90;;;12.43;;
65799;SDS011;52544;48.116;11.660;2024-01-11T09:15:51;38.60;;;13.65;;
65799;SDS011;52544;48.116;11.660;2024-01-11T09:18:17;36.00;;;12.00;;
65799;SDS011;52544;48.116;11.660;2024-01-11T09:20:43;34.50;;;12.27;;
65799;SDS011;52544;48.116;11.660;2024-01-11T09:23:08;43.00;;;12.55;;
65799;SDS011;52544;48.116;11.660;2024-01-11T09:25:34;33.88;;;12.13;;
65799;SDS011;52544;48.116;11.660;2024-01-11T09:28:00;31.92;;;11.77;;
65799;SDS011;52544;48.116;11.660;2024-01-11T09:30:25;38.90;;;13.32;;
65799;SDS011;52544;48.116;11.660;2024-01-11T09:32:50;34.05;;;12.40;;
65799;SDS011;52544;48.116;11.660;2024-01-11T09:35:16;33.50;;;12.00;;
65799;SDS011;52544;48.116;11.660;2024-01-11T09:37:41;36.90;;;12.77;;
65799;SDS011;52544;48.116;11.660;2024-01-11T09:40:08;36.58;;;12.35;;
65799;SDS011;52544;48.116;11.660;2024-01-11T09:42:38;36.80;;;12.77;;
65799;SDS011;52544;48.116;11.660;2024-01-11T09:45:08;26.77;;;10.43;;
65799;SDS011;52544;48.116;11.660;2024-01-11T09:47:45;33.38;;;12.77;;
65799;SDS011;52544;48.116;11.660;2024-01-11T09:50:12;37.67;;;12.25;;
65799;SDS011;52544;48.116;11.660;2024-01-11T09:52:44;37.00;;;13.48;;
65799;SDS011;52544;48.116;11.660;2024-01-11T09:55:14;35.67;;;12.90;;
65799;SDS011;52544;48.116;11.660;2024-01-11T09:57:41;44.63;;;13.05;;
65799;SDS011;52544;48.116;11.660;2024-01-11T10:00:09;37.80;;;13.30;;
65799;SDS011;52544;48.116;11.660;2024-01-11T10:02:38;34.55;;;11.85;;
65799;SDS011;52544;48.116;11.660;2024-01-11T10:05:03;40.22;;;12.85;;
65799;SDS011;52544;48.116;11.660;2024-01-11T10:07:30;35.22;;;12.18;;
65799;SDS011;52544;48.116;11.660;2024-01-11T10:09:58;44.40;;;14.60;;
65799;SDS011;52544;48.116;11.660;2024-01-11T10:12:23;36.65;;;13.13;;
65799;SDS011;52544;48.116;11.660;2024-01-11T10:14:53;33.55;;;11.75;;
65799;SDS011;52544;48.116;11.660;2024-01-11T10:17:19;43.75;;;13.07;;
65799;SDS011;52544;48.116;11.660;2024-01-11T10:19:45;34.70;;;12.13;;
65799;SDS011;52544;48.116;11.660;2024-01-11T10:22:10;46.63;;;13.07;;
65799;SDS011;52544;48.116;11.660;2024-01-11T10:24:42;36.88;;;11.70;;
65799;SDS011;52544;48.116;11.660;2024-01-11T10:27:11;40.10;;;13.80;;
65799;SDS011;52544;48.116;11.660;2024-01-11T10:29:36;40.65;;;13.27;;
65799;SDS011;52544;48.116;11.660;2024-01-11T10:32:05;43.10;;;15.30;;
65799;SDS011;52544;48.116;11.660;2024-01-11T10:34:31;36.45;;;14.43;;
65799;SDS011;52544;48.116;11.660;2024-01-11T10:36:56;36.67;;;13.35;;
65799;SDS011;52544;48.116;11.660;2024-01-11T10:39:25;36.35;;;13.07;;
65799;SDS011;52544;48.116;11.660;2024-01-11T10:41:56;38.70;;;14.05;;
65799;SDS011;52544;48.116;11.660;2024-01-11T10:44:34;36.60;;;14.48;;
65799;SDS011;52544;48.116;11.660;2024-01-11T10:47:02;44.47;;;14.93;;
65799;SDS011;52544;48.116;11.660;2024-01-11T10:49:30;42.50;;;14.18;;
65799;SDS011;52544;48.116;11.660;2024-01-11T10:52:04;41.63;;;14.75;;
65799;SDS011;52544;48.116;11.660;2024-01-11T10:54:33;46.20;;;15.15;;
65799;SDS011;52544;48.116;11.660;2024-01-11T10:56:59;43.92;;;15.05;;
65799;SDS011;52544;48.116;11.660;2024-01-11T10:59:26;42.08;;;14.82;;
65799;SDS011;52544;48.116;11.660;2024-01-11T11:01:53;35.90;;;14.23;;
65799;SDS011;52544;48.116;11.660;2024-01-11T11:04:20;45.65;;;16.83;;
65799;SDS011;52544;48.116;11.660;2024-01-11T11:06:48;47.97;;;15.75;;
65799;SDS011;52544;48.116;11.660;2024-01-11T11:09:14;39.17;;;13.73;;
65799;SDS011;52544;48.116;11.660;2024-01-11T11:11:40;43.53;;;16.80;;
65799;SDS011;52544;48.116;11.660;2024-01-11T11:14:06;47.13;;;15.57;;
65799;SDS011;52544;48.116;11.660;2024-01-11T11:16:32;40.00;;;15.50;;
65799;SDS011;52544;48.116;11.660;2024-01-11T11:18:58;46.78;;;15.90;;
65799;SDS011;52544;48.116;11.660;2024-01-11T11:21:23;43.90;;;17.45;;
65799;SDS011;52544;48.116;11.660;2024-01-11T11:23:50;48.50;;;19.35;;
65799;SDS011;52544;48.116;11.660;2024-01-11T11:26:15;50.28;;;16.27;;
65799;SDS011;52544;48.116;11.660;2024-01-11T11:28:42;49.35;;;18.88;;
65799;SDS011;52544;48.116;11.660;2024-01-11T11:31:08;49.78;;;15.95;;
65799;SDS011;52544;48.116;11.660;2024-01-11T11:33:35;51.92;;;18.23;;
65799;SDS011;52544;48.116;11.660;2024-01-11T11:36:01;50.28;;;17.50;;
65799;SDS011;52544;48.116;11.660;2024-01-11T11:38:28;44.08;;;15.80;;
65799;SDS011;52544;48.116;11.660;2024-01-11T11:40:56;53.28;;;17.08;;
65799;SDS011;52544;48.116;11.660;2024-01-11T11:43:24;63.08;;;18.55;;
65799;SDS011;52544;48.116;11.660;2024-01-11T11:45:52;64.40;;;20.42;;
65799;SDS011;52544;48.116;11.660;2024-01-11T11:51:10;55.00;;;18.45;;
65799;SDS011;52544;48.116;11.660;2024-01-11T11:53:38;52.55;;;17.90;;
65799;SDS011;52544;48.116;11.660;2024-01-11T11:56:05;63.53;;;20.27;;
65799;SDS011;52544;48.116;11.660;2024-01-11T11:58:32;55.53;;;20.27;;
65799;SDS011;52544;48.116;11.660;2024-01-11T12:00:58;55.92;;;18.50;;
65799;SDS011;52544;48.116;11.660;2024-01-11T12:03:34;61.10;;;20.40;;
65799;SDS011;52544;48.116;11.660;2024-01-11T12:06:05;50.05;;;16.55;;
65799;SDS011;52544;48.116;11.660;2024-01-11T12:08:32;57.92;;;21.05;;
65799;SDS011;52544;48.116;11.660;2024-01-11T12:10:57;54.03;;;20.00;;
65799;SDS011;52544;48.116;11.660;2024-01-11T12:13:24;70.10;;;18.98;;
65799;SDS011;52544;48.116;11.660;2024-01-11T12:15:50;60.65;;;23.52;;
65799;SDS011;52544;48.116;11.660;2024-01-11T12:18:16;66.95;;;20.60;;
65799;SDS011;52544;48.116;11.660;2024-01-11T12:20:41;56.33;;;20.45;;
65799;SDS011;52544;48.116;11.660;2024-01-11T12:23:07;58.60;;;20.23;;
65799;SDS011;52544;48.116;11.660;2024-01-11T12:25:32;64.97;;;20.40;;
65799;SDS011;52544;48.116;11.660;2024-01-11T12:27:58;56.03;;;20.73;;
65799;SDS011;52544;48.116;11.660;2024-01-11T12:30:24;62.72;;;19.85;;
65799;SDS011;52544;48.116;11.660;2024-01-11T12:32:51;65.00;;;21.42;;
65799;SDS011;52544;48.116;11.660;2024-01-11T12:35:17;57.50;;;20.52;;
65799;SDS011;52544;48.116;11.660;2024-01-11T12:40:37;55.65;;;21.92;;
65799;SDS011;52544;48.116;11.660;2024-01-11T12:43:04;57.78;;;18.73;;
65799;SDS011;52544;48.116;11.660;2024-01-11T12:45:31;61.50;;;20.10;;
65799;SDS011;52544;48.116;11.660;2024-01-11T12:48:00;65.47;;;21.92;;
65799;SDS011;52544;48.116;11.660;2024-01-11T12:50:28;60.10;;;19.90;;
65799;SDS011;52544;48.116;11.660;2024-01-11T12:53:04;68.90;;;21.23;;
65799;SDS011;52544;48.116;11.660;2024-01-11T12:55:33;57.63;;;20.98;;
65799;SDS011;52544;48.116;11.660;2024-01-11T12:58:08;65.72;;;21.63;;
65799;SDS011;52544;48.116;11.660;2024-01-11T13:00:37;61.75;;;20.92;;
65799;SDS011;52544;48.116;11.660;2024-01-11T13:03:06;57.78;;;19.40;;
65799;SDS011;52544;48.116;11.660;2024-01-11T13:05:32;60.28;;;18.83;;
65799;SDS011;52544;48.116;11.660;2024-01-11T13:08:01;74.78;;;21.65;;
65799;SDS011;52544;48.116;11.660;2024-01-11T13:10:28;64.35;;;20.10;;
65799;SDS011;52544;48.116;11.660;2024-01-11T13:12:53;66.00;;;21.75;;
65799;SDS011;52544;48.116;11.660;2024-01-11T13:15:20;53.15;;;19.48;;
65799;SDS011;52544;48.116;11.660;2024-01-11T13:17:45;57.22;;;19.05;;
65799;SDS011;52544;48.116;11.660;2024-01-11T13:20:10;55.65;;;19.55;;
65799;SDS011;52544;48.116;11.660;2024-01-11T13:22:36;57.97;;;20.98;;
65799;SDS011;52544;48.116;11.660;2024-01-11T13:25:01;57.03;;;21.38;;
65799;SDS011;52544;48.116;11.660;2024-01-11T13:27:27;52.80;;;19.17;;
65799;SDS011;52544;48.116;11.660;2024-01-11T13:29:52;60.72;;;20.80;;
65799;SDS011;52544;48.116;11.660;2024-01-11T13:32:17;64.97;;;21.85;;
65799;SDS011;52544;48.116;11.660;2024-01-11T13:34:43;60.38;;;22.05;;
65799;SDS011;52544;48.116;11.660;2024-01-11T13:37:09;48.38;;;18.83;;
65799;SDS011;52544;48.116;11.660;2024-01-11T13:39:34;59.45;;;19.98;;
65799;SDS011;52544;48.116;11.660;2024-01-11T13:42:00;60.45;;;20.55;;
65799;SDS011;52544;48.116;11.660;2024-01-11T13:44:25;50.58;;;19.55;;
65799;SDS011;52544;48.116;11.660;2024-01-11T13:46:50;70.13;;;20.92;;
65799;SDS011;52544;48.116;11.660;2024-01-11T13:49:16;57.45;;;20.40;;
65799;SDS011;52544;48.116;11.660;2024-01-11T13:51:41;59.00;;;19.70;;
65799;SDS011;52544;48.116;11.660;2024-01-11T13:54:09;69.03;;;23.25;;
65799;SDS011;52544;48.116;11.660;2024-01-11T13:56:34;50.70;;;20.17;;
65799;SDS011;52544;48.116;11.660;2024-01-11T13:59:00;56.67;;;19.60;;
65799;SDS011;52544;48.116;11.660;2024-01-11T14:01:26;63.42;;;21.92;;
65799;SDS011;52544;48.116;11.660;2024-01-11T14:03:51;59.67;;;19.98;;
65799;SDS011;52544;48.116;11.660;2024-01-11T14:06:17;56.88;;;20.20;;
65799;SDS011;52544;48.116;11.660;2024-01-11T14:08:42;70.32;;;22.55;;
65799;SDS011;52544;48.116;11.660;2024-01-11T14:11:07;62.15;;;21.35;;